• Join FlightAware (Why Join?)
  • Login
  • US Flag 
03:42PM EDT


 

Airport Tracker/Info


-or-


 

Live Flight TrackerFlight Track Log ✈ EJA951 ✈ 16-Mar-2014 ✈ KRIC - KPNE

Flight Track Log - Related Links

Times and Time Zones

All times are in EDT time to prevent confusion due to time zone crossing. See the EJA951 flight status page for this flight to view local times or setup timezone preferences in your user account.

Time Position Orientation Groundspeed Altitude Reporting Facility
EDT Latitude Longitude Course Direction KTS MPH feet Rate Location/Type
02:14PM 37.5833 -77.2500 38° Northeast 277 319 6,200  Level Potomac TRACON
02:15PM 37.6689 -77.1528 42° Northeast 327 376 8,500 1,440 Climbing Washington Center
02:16PM 37.7364 -77.0833 39° Northeast 315 362 9,500 1,500 Climbing Washington Center
02:17PM 37.8083 -77.0086 39° Northeast 316 364 11,600 2,100 Climbing Washington Center
02:18PM 37.8906 -76.9258 38° Northeast 348 400 13,800 1,800 Climbing Washington Center
02:19PM 37.9728 -76.8272 43° Northeast 375 432 15,200 1,200 Climbing Washington Center
02:20PM 38.0575 -76.7206 45° Northeast 405 466 16,200 900 Climbing Washington Center
02:21PM 38.1522 -76.6189 40° Northeast 427 491 17,000 360 Climbing Washington Center
02:22PM 38.2489 -76.5144 40° Northeast 442 509 17,000  Level Washington Center
02:23PM 38.3350 -76.4228 40° Northeast 442 509 17,000  Level Washington Center
02:24PM 38.4317 -76.3178 40° Northeast 442 509 17,000 -1,020 Level Washington Center
02:25PM 38.5261 -76.2128 41° Northeast 447 514 15,000 -1,920 Descending Washington Center
02:26PM 38.6286 -76.1019 40° Northeast 441 507 13,300 -1,020 Descending Washington Center
02:27PM 38.7125 -76.0094 41° Northeast 418 481 13,000 -180 Descending Washington Center
02:28PM 38.8025 -75.9139 40° Northeast 411 473 13,000  Level Washington Center
02:29PM 38.8756 -75.7889 53° Northeast 421 484 13,000  Level Washington Center
02:30PM 38.9467 -75.6717 52° Northeast 443 510 13,000 -60 Level Washington Center
02:32PM 39.1167 -75.5000 38° Northeast 411 473 12,900 -240 Descending Philadelphia TRACON
02:33PM 39.2167 -75.5167 353° North 332 382 12,400 -480 Descending Philadelphia TRACON
02:34PM 39.3000 -75.5333 351° North 331 381 12,000 -240 Descending Philadelphia TRACON
02:35PM 39.3833 -75.5500 351° North 319 367 12,000  Level Philadelphia TRACON
02:36PM 39.4500 -75.4667 44° Northeast 354 407 12,000  Level Philadelphia TRACON
02:37PM 39.5167 -75.3833 44° Northeast 350 403 12,000 -60 Level Philadelphia TRACON
02:37PM 39.5833 -75.3000 44° Northeast 352 405 11,900 -780 Descending Philadelphia TRACON
02:38PM 39.6500 -75.2000 49° Northeast 326 375 10,600 -960 Descending Philadelphia TRACON
02:39PM 39.7000 -75.1167 52° Northeast 331 381 10,000 -900 Descending Philadelphia TRACON
02:40PM 39.7667 -75.0333 44° Northeast 316 364 8,800 -960 Descending Philadelphia TRACON
02:42PM 39.8333 -74.9500 44° Northeast 308 354 8,000 -1,080 Descending Philadelphia TRACON
02:43PM 39.9000 -74.9000 30° Northeast 262 302 6,600 -1,680 Descending Philadelphia TRACON
02:43PM 39.9500 -74.8833 14° North 227 261 4,900 -1,500 Descending Philadelphia TRACON
02:45PM 40.0000 -74.8833 360° North 172 198 3,600 -1,320 Descending Philadelphia TRACON
02:46PM 40.0167 -74.9333 294° West 141 162 2,200 -1,380 Descending Philadelphia TRACON
02:47PM 40.0500 -74.9833 311° West 125 144 900 -1,320 Descending Philadelphia TRACON
02:49PM 40.0667 -75.0000 303° West  Level FlightAware Approximate
02:56PM 40.0819 -75.0106 303° West  Level Estimated